METAR Data
IDs: Format: Raw Decoded Include TAF

Data at: 2107 UTC 01 Oct 2022

KPGV 012055Z AUTO 25005KT 10SM OVC040 22/15 A2981 RMK AO2
KPGV 012035Z AUTO 24004KT 10SM OVC042 22/15 A2980 RMK AO2
KPGV 012015Z AUTO 26005KT 10SM BKN042 BKN047 22/15 A2980 RMK AO2
KPGV 011955Z AUTO 22004KT 10SM BKN040 22/15 A2980 RMK AO2
KPGV 011935Z AUTO 22004KT 10SM BKN040 21/15 A2980 RMK AO2
KPGV 011915Z AUTO 22003KT 10SM BKN040 22/15 A2980 RMK AO2
KPGV 011855Z AUTO 24005KT 10SM BKN038 OVC043 22/15 A2980 RMK AO2
KPGV 011835Z AUTO 24004KT 10SM OVC036 22/15 A2980 RMK AO2
KPGV 011815Z AUTO 24005KT 10SM OVC036 21/15 A2980 RMK AO2
KPGV 011755Z AUTO 24006KT 10SM OVC036 21/14 A2981 RMK AO2
KPGV 011735Z AUTO 22007KT 10SM BKN036 22/14 A2982 RMK AO2
KPGV 011715Z AUTO 22007KT 10SM OVC034 21/15 A2982 RMK AO2
KPGV 011655Z AUTO 22010KT 10SM OVC032 21/15 A2982 RMK AO2
KPGV 011635Z AUTO 25006KT 10SM OVC029 20/15 A2982 RMK AO2
KPGV 011615Z AUTO 26009KT 10SM OVC029 20/14 A2983 RMK AO2
KPGV 011555Z AUTO 22007KT 10SM OVC029 19/15 A2983 RMK AO2
KPGV 011535Z AUTO 21006KT 10SM OVC027 18/15 A2983 RMK AO2
KPGV 011515Z AUTO 23008G15KT 10SM OVC027 18/14 A2983 RMK AO2
KPGV 011455Z AUTO 23007KT 10SM OVC027 18/14 A2982 RMK AO2
KPGV 011435Z AUTO 24010KT 10SM OVC027 18/14 A2982 RMK AO2
KPGV 011415Z AUTO 23009KT 10SM OVC027 18/14 A2981 RMK AO2
KPGV 011355Z AUTO 23011G18KT 10SM OVC025 18/14 A2980 RMK AO2
KPGV 011335Z AUTO 23010G14KT 10SM BKN027 18/15 A2980 RMK AO2
KPGV 011315Z AUTO 22011G15KT 10SM SCT029 17/14 A2979 RMK AO2
KPGV 011255Z AUTO 21009KT 10SM BKN029 17/14 A2978 RMK AO2
KPGV 011235Z AUTO 22009G14KT 10SM SCT020 BKN027 OVC032 17/16 A2978 RMK AO2
KPGV 010615Z AUTO 18009KT 10SM SCT019 SCT028 OVC037 20/20 A2968 RMK AO2
KPGV 010555Z AUTO 16007KT 10SM OVC036 20/20 A2967 RMK AO2
KPGV 010535Z AUTO 17008KT 10SM SCT015 SCT024 OVC038 20/20 A2967 RMK AO2
KPGV 010515Z AUTO 18007KT 10SM BKN015 OVC023 21/20 A2967 RMK AO2
KPGV 010455Z AUTO 17004KT 10SM -DZ BKN015 OVC021 21/21 A2967 RMK AO2
KPGV 010435Z AUTO 17008KT 10SM BKN017 OVC022 21/21 A2966 RMK AO2
KPGV 010415Z AUTO 16009KT 10SM BKN019 OVC027 21/21 A2966 RMK AO2
KPGV 010355Z AUTO 15008G15KT 10SM SCT019 BKN027 OVC039 22/21 A2965 RMK AO2
KPGV 010335Z AUTO 17009G14KT 10SM SCT015 BKN035 OVC047 22/21 A2965 RMK AO2
KPGV 010315Z AUTO 19012KT 10SM -DZ BKN015 BKN023 OVC032 22/22 A2964 RMK AO2
KPGV 010255Z AUTO 15006KT 10SM SCT019 BKN024 OVC030 22/22 A2963 RMK AO2
KPGV 010235Z AUTO 14006KT 7SM -RA SCT017 BKN022 OVC030 22/22 A2963 RMK AO2
KPGV 010215Z AUTO 15010G16KT 5SM -RA SCT015 BKN029 OVC049 22/22 A2962 RMK AO2
KPGV 010155Z AUTO 13009G16KT 5SM -DZ SCT013 BKN021 OVC049 22/22 A2962 RMK AO2
KPGV 010135Z AUTO 15007KT 5SM +RA BKN017 OVC022 23/23 A2962 RMK AO2
KPGV 010115Z AUTO 15006KT 5SM +DZ SCT015 BKN022 OVC029 23/23 A2962 RMK AO2
KPGV 010055Z AUTO 13008KT 10SM SCT010 BKN024 OVC029 23/23 A2960 RMK AO2
KPGV 010035Z AUTO 13005KT 7SM DZ SCT010 BKN015 OVC025 23/23 A2960 RMK AO2
KPGV 010015Z AUTO 11008KT 10SM BKN020 OVC027 24/24 A2959 RMK AO2
KPGV 302355Z AUTO 11009G16KT 7SM BKN017 OVC023 23/23 A2959 RMK AO2
KPGV 302335Z AUTO 09007KT 7SM RA SCT005 SCT010 OVC015 22/22 A2958 RMK AO2
KPGV 302315Z AUTO 05006KT 10SM BKN005 OVC012 21/21 A2959 RMK AO2
KPGV 302255Z AUTO 04008KT 10SM -RA BKN005 OVC012 21/21 A2960 RMK AO2
KPGV 302235Z AUTO 05008KT 10SM OVC009 21/21 A2960 RMK AO2
KPGV 302215Z AUTO 05009G16KT 10SM OVC009 20/20 A2960 RMK AO2
KPGV 302155Z AUTO 04008KT 7SM +RA OVC009 20/20 A2961 RMK AO2
KPGV 302135Z AUTO 03008KT 10SM BKN011 OVC017 20/20 A2961 RMK AO2
KPGV 302115Z AUTO 03015G21KT 5SM -RA SCT008 BKN015 OVC020 20/19 A2961 RMK AO2
KPGV 302055Z AUTO 04014G21KT 7SM -RA BKN008 OVC021 19/19 A2962 RMK AO2
KPGV 302035Z AUTO 04016G22KT 3SM +RA BKN008 BKN018 OVC024 19/19 A2963 RMK AO2
KPGV 302015Z AUTO 05017G25KT 1SM +RA OVC008 19/19 A2964 RMK AO2
KPGV 301955Z AUTO 06015G27KT 4SM -RA OVC008 19/19 A2965 RMK AO2
KPGV 301935Z AUTO 05018G28KT 1 3/4SM RA OVC008 19/19 A2968 RMK AO2
KPGV 301915Z AUTO 05018G25KT 3SM -RA OVC008 19/19 A2969 RMK AO2
KPGV 301855Z AUTO 04019G25KT 7SM -RA OVC008 18/18 A2970 RMK AO2
KPGV 301835Z AUTO 04018G24KT 3SM RA OVC010 18/18 A2973 RMK AO2
KPGV 301815Z AUTO 05018G27KT 7SM -RA OVC010 18/18 A2973 RMK AO2
KPGV 301755Z AUTO 04018G24KT 5SM -RA OVC010 18/18 A2975 RMK AO2
KPGV 301735Z AUTO 03016G22KT 7SM -RA OVC010 18/18 A2978 RMK AO2
KPGV 301715Z AUTO 04016G25KT 3SM RA OVC010 18/18 A2980 RMK AO2
KPGV 301655Z AUTO 05016G21KT 5SM -RA OVC010 18/18 A2982 RMK AO2
KPGV 301635Z AUTO 03014G23KT 4SM -RA OVC010 18/18 A2982 RMK AO2
KPGV 301615Z AUTO 04015G26KT 5SM RA OVC010 18/18 A2985 RMK AO2
KPGV 301555Z AUTO 04014G24KT 3SM RA OVC010 18/18 A2987 RMK AO2
KPGV 301535Z AUTO 04017G23KT 3SM RA BKN010 OVC013 18/18 A2988 RMK AO2
KPGV 301515Z AUTO 04014G23KT 10SM RA OVC008 18/18 A2989 RMK AO2
KPGV 301455Z AUTO 04015G23KT 5SM -RA OVC008 18/18 A2989 RMK AO2
KPGV 301435Z AUTO 04015G27KT 2SM RA OVC008 18/18 A2990 RMK AO2 VIS 1 1/2V3
KPGV 301415Z AUTO 04016G22KT 3SM RA OVC008 18/17 A2991 RMK AO2
KPGV 301355Z AUTO 03016G23KT 3SM RA OVC008 18/17 A2992 RMK AO2
KPGV 301335Z AUTO 04012G24KT 5SM -RA OVC008 18/17 A2993 RMK AO2
KPGV 301315Z AUTO 04016G25KT 3SM RA OVC008 17/17 A2992 RMK AO2
KPGV 301255Z AUTO 04017G23KT 3SM RA OVC008 17/17 A2993 RMK AO2
KPGV 301235Z AUTO 04017G23KT 3SM RA OVC008 17/17 A2993 RMK AO2
KPGV 301215Z AUTO 04015G22KT 4SM RA OVC008 17/17 A2994 RMK AO2
KPGV 301155Z AUTO 04018G26KT 4SM RA OVC008 17/17 A2993 RMK AO2
KPGV 301135Z AUTO 03010G17KT 5SM RA OVC008 17/17 A2998 RMK AO2
KPGV 301115Z AUTO 04011G16KT 7SM RA OVC008 17/17 A2999 RMK AO2
KPGV 301055Z AUTO 04011G18KT 7SM RA OVC008 17/17 A2998 RMK AO2
KPGV 301035Z AUTO 03014G18KT 10SM -RA OVC008 17/17 A2998 RMK AO2
KPGV 301015Z AUTO 03013G21KT 7SM RA OVC008 17/17 A2998 RMK AO2
KPGV 300955Z AUTO 03013G17KT 7SM RA OVC008 16/16 A2998 RMK AO2
KPGV 300935Z AUTO 03016G20KT 10SM -RA OVC008 16/16 A2999 RMK AO2
KPGV 300915Z AUTO 03012KT 10SM -RA OVC008 16/16 A2999 RMK AO2